Holmquist, South Dakota
Current Conditions -  °F | °C
As of 6:49 PM on Monday 22 Dec 2014 (Local Time) from KATY Reporting Station
Haze Haze  
Wind Chill: 31°   Ceiling: 200
Heat Index: 36°   Visibility: 2.5mi
Dew Point: 36°   Wind: 6mph
Humidity: 100%   Direction: 100°E
Pressure: 29.46"   Gusts: NA
Location:  45.2988°N, 97.5074°W
Report Text: KATY 230049Z AUTO 10005KT 2 1/2SM BR OVC002 02/02 A2946 RMK AO2
Loading
Personal Weather Stations






























Interactive Weather Map New forecast layout! Learn more

10-Day Weather Forecast

Advertisements
Track Severe Weather on mobile